Time;durP1;ratioP1;P1;durP2;ratioP2;P2;SDS_P1;SDS_P2;PMS_P1;PMS_P2;Temp;Humidity;BMP_temperature;BMP_pressure;BME280_temperature;BME280_humidity;BME280_pressure;Samples;Min_cycle;Max_cycle;Signal;HPM_P1;HPM_P2
2022/10/11 00:01:23;;;;;;;6.37;3.57;;;;;;;3.16;100.00;100533.56;1723805;80;21040;-46
2022/10/11 00:03:49;;;;;;;7.17;2.30;;;;;;;3.12;100.00;100531.38;1721251;80;22454;-45
2022/10/11 00:06:16;;;;;;;6.03;2.97;;;;;;;3.09;100.00;100528.73;1721432;80;21503;-45
2022/10/11 00:08:43;;;;;;;3.60;2.03;;;;;;;3.08;100.00;100523.41;1721344;80;21038;-47
2022/10/11 00:11:10;;;;;;;4.23;2.70;;;;;;;3.07;100.00;100519.86;1718830;80;21316;-45
2022/10/11 00:13:36;;;;;;;8.90;3.27;;;;;;;3.07;100.00;100518.53;1719472;80;21765;-45
2022/10/11 00:16:10;;;;;;;8.03;3.07;;;;;;;3.07;100.00;100519.86;1729042;80;22005;-46
2022/10/11 00:18:37;;;;;;;2.60;2.10;;;;;;;3.07;100.00;100517.65;1723491;80;21062;-45
2022/10/11 00:21:06;;;;;;;3.00;1.67;;;;;;;3.08;100.00;100523.41;1721464;80;21034;-45
2022/10/11 00:23:33;;;;;;;6.07;3.07;;;;;;;3.06;100.00;100518.13;1722646;80;21034;-45
2022/10/11 00:26:00;;;;;;;6.73;2.43;;;;;;;3.04;100.00;100514.59;1723184;80;21007;-45
2022/10/11 00:28:27;;;;;;;7.60;3.07;;;;;;;3.02;100.00;100508.38;1721435;80;21089;-46
2022/10/11 00:30:53;;;;;;;5.03;3.57;;;;;;;2.98;100.00;100514.15;1723949;80;21768;-45
2022/10/11 00:33:20;;;;;;;8.20;3.63;;;;;;;2.94;100.00;100509.76;1725900;80;21037;-45
2022/10/11 00:35:47;;;;;;;5.57;2.20;;;;;;;2.88;100.00;100516.89;1725605;80;21178;-44
2022/10/11 00:38:14;;;;;;;5.80;1.73;;;;;;;2.78;100.00;100514.72;1727415;80;21049;-46
2022/10/11 00:40:41;;;;;;;4.87;2.10;;;;;;;2.74;100.00;100518.71;1727832;80;21849;-47
2022/10/11 00:43:17;;;;;;;4.30;1.90;;;;;;;2.71;100.00;100519.63;1726781;80;21407;-45
2022/10/11 00:45:58;;;;;;;4.67;1.80;;;;;;;2.68;100.00;100515.64;1731528;80;21057;-46
2022/10/11 00:48:42;;;;;;;5.37;2.67;;;;;;;2.64;100.00;100520.08;1733956;80;21041;-45
2022/10/11 00:51:26;;;;;;;7.47;2.63;;;;;;;2.64;100.00;100517.41;1726689;80;21002;-47
2022/10/11 00:53:52;;;;;;;5.13;1.87;;;;;;;2.63;100.00;100517.01;1726408;80;21850;-47
2022/10/11 00:56:26;;;;;;;4.03;2.40;;;;;;;2.62;100.00;100514.34;1729707;80;21077;-46
2022/10/11 00:58:52;;;;;;;4.45;2.55;;;;;;;2.56;100.00;100514.34;1730932;80;21478;-46
2022/10/11 01:01:18;;;;;;;3.97;1.70;;;;;;;2.52;100.00;100512.61;1724053;80;21037;-47
2022/10/11 01:03:45;;;;;;;4.07;2.30;;;;;;;2.48;100.00;100514.83;1727936;80;21002;-45
2022/10/11 01:06:14;;;;;;;5.13;2.23;;;;;;;2.45;100.00;100504.23;1726787;80;21097;-47
2022/10/11 01:08:40;;;;;;;6.23;2.20;;;;;;;2.45;100.00;100509.55;1728312;80;21810;-47
2022/10/11 01:11:11;;;;;;;3.73;2.17;;;;;;;2.44;100.00;100508.66;1723993;80;21091;-45
2022/10/11 01:14:08;;;;;;;2.97;2.20;;;;;;;2.43;100.00;100510.87;1721416;80;22531;-45
2022/10/11 01:17:05;;;;;;;3.70;1.77;;;;;;;2.41;100.00;100508.66;1729127;80;21101;-44
2022/10/11 01:20:11;;;;;;;7.33;2.57;;;;;;;2.40;100.00;100512.20;1724218;80;21840;-46
2022/10/11 01:23:07;;;;;;;8.20;2.27;;;;;;;2.39;100.00;100514.85;1650264;85;21280;-46
2022/10/11 01:26:08;;;;;;;3.83;1.60;;;;;;;2.39;100.00;100524.16;1725121;80;21081;-46
2022/10/11 01:28:58;;;;;;;5.43;1.63;;;;;;;2.38;100.00;100523.30;1722182;80;21146;-46
2022/10/11 01:31:40;;;;;;;2.70;1.53;;;;;;;2.34;100.00;100521.52;1717998;80;21056;-46
2022/10/11 01:34:36;;;;;;;4.43;1.27;;;;;;;2.32;100.00;100523.29;1620700;86;21772;-46
2022/10/11 01:37:13;;;;;;;5.77;1.67;;;;;;;2.35;100.00;100522.41;1713850;81;21043;-46
2022/10/11 01:39:46;;;;;;;3.33;1.63;;;;;;;2.34;100.00;100522.85;1713830;81;21130;-46
2022/10/11 01:42:12;;;;;;;4.60;2.00;;;;;;;2.37;100.00;100525.95;1714949;81;21599;-46
2022/10/11 01:44:40;;;;;;;2.43;1.80;;;;;;;2.35;100.00;100523.30;1715620;81;21620;-47
2022/10/11 01:47:07;;;;;;;4.83;1.63;;;;;;;2.36;100.00;100523.73;1718079;81;21929;-46
2022/10/11 01:49:34;;;;;;;3.23;1.77;;;;;;;2.37;100.00;100527.28;1724410;81;22330;-46
2022/10/11 01:52:04;;;;;;;2.93;1.50;;;;;;;2.37;100.00;100529.94;1712528;81;21046;-46
2022/10/11 01:54:50;;;;;;;1.70;1.60;;;;;;;2.36;100.00;100518.42;1670028;83;21060;-46
2022/10/11 01:57:58;;;;;;;15.67;2.00;;;;;;;2.35;100.00;100520.64;1673283;83;21714;-46
2022/10/11 02:00:28;;;;;;;4.75;1.55;;;;;;;2.36;100.00;100523.73;1674708;83;21864;-46
2022/10/11 02:03:18;;;;;;;2.20;1.13;;;;;;;2.32;100.00;100521.97;1675641;83;21067;-47
2022/10/11 02:05:56;;;;;;;7.50;1.50;;;;;;;2.30;100.00;100519.75;1676885;83;21101;-47
2022/10/11 02:08:35;;;;;;;4.37;1.30;;;;;;;2.27;100.00;100525.98;1675299;83;21530;-46
2022/10/11 02:11:17;;;;;;;3.50;1.60;;;;;;;2.28;100.00;100524.20;1673025;83;21069;-46
2022/10/11 02:14:00;;;;;;;5.00;1.50;;;;;;;2.32;100.00;100522.41;1673974;83;21061;-46
2022/10/11 02:16:32;;;;;;;3.37;1.13;;;;;;;2.33;100.00;100515.77;1711775;81;21088;-46
2022/10/11 02:18:58;;;;;;;5.20;1.40;;;;;;;2.38;100.00;100521.09;1702995;81;21540;-46
2022/10/11 02:21:24;;;;;;;4.47;1.30;;;;;;;2.41;100.00;100520.61;1711475;81;21077;-46
2022/10/11 02:23:56;;;;;;;4.27;1.50;;;;;;;2.44;100.00;100525.04;1714900;81;21077;-46
2022/10/11 02:26:22;;;;;;;2.80;1.77;;;;;;;2.44;100.00;100520.61;1717031;81;23132;-47
2022/10/11 02:28:49;;;;;;;3.67;1.93;;;;;;;2.44;100.00;100515.74;1712533;81;21752;-46
2022/10/11 02:31:16;;;;;;;6.73;2.00;;;;;;;2.42;100.00;100514.41;1717668;80;21023;-46
2022/10/11 02:33:46;;;;;;;11.23;2.17;;;;;;;2.41;100.00;100511.31;1721624;81;21141;-46
2022/10/11 02:36:33;;;;;;;4.67;2.07;;;;;;;2.39;100.00;100517.06;1659895;84;21555;-46
2022/10/11 02:39:05;;;;;;;5.97;1.53;;;;;;;2.34;100.00;100518.87;1599166;84;21893;-47
2022/10/11 02:41:38;;;;;;;2.77;1.50;;;;;;;2.33;100.00;100514.87;1675676;83;21018;-46
2022/10/11 02:44:08;;;;;;;1.97;1.10;;;;;;;2.31;100.00;100516.65;1683447;83;20971;-46
2022/10/11 02:46:34;;;;;;;3.30;1.87;;;;;;;2.28;100.00;100517.12;1682341;83;21127;-46
2022/10/11 02:49:02;;;;;;;3.87;1.53;;;;;;;2.25;100.00;100515.79;1676496;83;21886;-46
2022/10/11 02:51:29;;;;;;;3.97;1.60;;;;;;;2.27;100.00;100518.00;1677898;83;21919;-46
2022/10/11 02:53:56;;;;;;;1.97;1.50;;;;;;;2.27;100.00;100515.35;1686804;83;20989;-46
2022/10/11 02:56:23;;;;;;;4.47;1.40;;;;;;;2.28;100.00;100514.47;1680382;83;20990;-47
2022/10/11 02:58:49;;;;;;;4.77;1.63;;;;;;;2.28;100.00;100518.89;1679526;83;20995;-47
2022/10/11 03:01:15;;;;;;;2.23;1.20;;;;;;;2.26;100.00;100517.56;1677738;83;21030;-46
2022/10/11 03:03:42;;;;;;;6.50;1.67;;;;;;;2.23;100.00;100514.02;1681130;83;21809;-46
2022/10/11 03:06:09;;;;;;;3.10;1.23;;;;;;;2.22;100.00;100513.57;1673354;83;21075;-46
2022/10/11 03:08:35;;;;;;;2.47;1.00;;;;;;;2.19;100.00;100511.83;1671920;83;21054;-47
2022/10/11 03:11:01;;;;;;;2.90;1.23;;;;;;;2.18;100.00;100512.72;1678813;83;21078;-46
2022/10/11 03:13:28;;;;;;;2.40;1.20;;;;;;;2.14;100.00;100520.23;1671709;83;21539;-47
2022/10/11 03:15:56;;;;;;;4.33;1.57;;;;;;;2.12;100.00;100520.70;1670105;83;21053;-46
2022/10/11 03:18:22;;;;;;;2.20;1.50;;;;;;;2.10;100.00;100517.16;1674397;83;21108;-47
2022/10/11 03:20:50;;;;;;;1.87;1.07;;;;;;;2.07;100.00;107123.66;1671983;83;21053;-46
2022/10/11 03:23:17;;;;;;;2.27;1.10;;;;;;;2.05;100.00;100514.94;1678377;83;21089;-46
2022/10/11 03:25:44;;;;;;;3.23;1.40;;;;;;;2.05;100.00;116433.64;1671829;83;21067;-46
2022/10/11 08:47:31;;;;;;;0.40;0.30;;;;;;;10.63;100.00;100465.31;1833504;76;22517;-51
2022/10/11 08:49:59;;;;;;;0.55;0.33;;;;;;;10.63;100.00;100469.35;1806096;77;21076;-50
2022/10/11 08:52:47;;;;;;;0.62;0.30;;;;;;;10.69;100.00;100467.38;1808135;77;21867;-50
2022/10/11 08:55:22;;;;;;;2.47;0.23;;;;;;;10.73;100.00;100467.66;1807168;77;21433;-50
2022/10/11 08:57:52;;;;;;;0.17;0.15;;;;;;;10.77;100.00;100469.33;1805105;77;21439;-50
2022/10/11 09:00:19;;;;;;;0.30;0.20;;;;;;;10.83;100.00;100465.92;1798561;77;21134;-50
2022/10/11 09:03:21;;;;;;;0.20;0.20;;;;;;;10.89;100.00;100462.98;1801890;77;21019;-50
2022/10/11 09:06:22;;;;;;;0.50;0.20;;;;;;;10.95;100.00;100460.55;1799203;77;21935;-48
2022/10/11 09:09:24;;;;;;;0.35;0.20;;;;;;;11.02;100.00;100468.80;1793120;77;21020;-47
2022/10/11 09:12:07;;;;;;;2.92;0.20;;;;;;;11.12;100.00;100459.42;1803477;77;21086;-48
2022/10/11 09:14:52;;;;;;;0.75;0.28;;;;;;;11.22;100.00;100455.44;1798461;77;21018;-48
2022/10/11 09:17:45;;;;;;;0.40;0.30;;;;;;;11.28;100.00;100453.83;1801732;77;21406;-48
2022/10/11 09:20:26;;;;;;;0.88;0.40;;;;;;;11.35;100.00;100460.73;1804998;77;21998;-48
2022/10/11 09:23:25;;;;;;;0.30;0.30;;;;;;;11.42;100.00;100455.08;1799771;77;21503;-48
2022/10/11 09:26:00;;;;;;;1.62;0.30;;;;;;;11.47;100.00;100455.79;1804164;77;21037;-48
2022/10/11 09:28:41;;;;;;;0.50;0.30;;;;;;;11.56;100.00;100460.34;1800595;77;21103;-50
2022/10/11 09:31:09;;;;;;;0.55;0.23;;;;;;;11.62;100.00;100457.38;1739894;80;22144;-48
2022/10/11 09:33:45;;;;;;;1.67;0.30;;;;;;;11.69;100.00;100456.18;1761275;79;21719;-48
2022/10/11 09:36:32;;;;;;;0.55;0.25;;;;;;;11.77;100.00;100458.59;1742884;80;21044;-48
2022/10/11 09:39:30;;;;;;;0.40;0.25;;;;;;;11.85;100.00;100450.17;1740612;80;21044;-50
2022/10/11 09:42:04;;;;;;;0.50;0.30;;;;;;;11.91;100.00;100445.89;1739014;80;21079;-48
2022/10/11 09:44:40;;;;;;;2.20;0.40;;;;;;;12.00;100.00;100453.09;1745026;80;21049;-48
2022/10/11 09:47:13;;;;;;;0.50;0.30;;;;;;;12.07;100.00;100441.58;1723828;81;21722;-48
2022/10/11 09:49:47;;;;;;;0.65;0.30;;;;;;;12.11;100.00;100452.16;1717363;82;22987;-47
2022/10/11 09:52:16;;;;;;;1.57;0.50;;;;;;;12.17;100.00;100441.56;1722130;82;21442;-50
2022/10/11 09:54:45;;;;;;;0.95;0.50;;;;;;;12.22;100.00;100435.51;1738407;81;21126;-49
2022/10/11 09:57:37;;;;;;;0.72;0.55;;;;;;;12.30;100.00;100433.81;1735714;80;21112;-50
2022/10/11 10:00:22;;;;;;;2.33;0.50;;;;;;;12.30;100.00;100433.81;1708467;80;22568;-49
2022/10/11 10:02:51;;;;;;;2.75;0.50;;;;;;;12.37;100.00;100432.12;1736875;80;21182;-50
2022/10/11 10:05:21;;;;;;;0.65;0.57;;;;;;;12.42;100.00;100429.20;1733343;80;21075;-50
2022/10/11 10:08:00;;;;;;;2.75;0.68;;;;;;;12.46;100.00;100430.83;1742810;80;21481;-50
2022/10/11 10:10:40;;;;;;;0.70;0.50;;;;;;;12.52;100.00;100421.09;1735089;80;21096;-50
2022/10/11 10:13:21;;;;;;;2.45;0.50;;;;;;;12.58;100.00;100420.83;1738066;80;21836;-50
2022/10/11 10:15:52;;;;;;;1.65;0.53;;;;;;;12.58;100.00;100420.83;1734151;80;21080;-50
2022/10/11 10:18:34;;;;;;;0.90;0.50;;;;;;;12.63;100.00;100421.95;1732617;80;21683;-50
2022/10/11 10:21:00;;;;;;;1.17;0.50;;;;;;;12.66;100.00;100416.42;1737136;80;21523;-50
2022/10/11 10:23:35;;;;;;;2.15;0.40;;;;;;;12.70;100.00;100416.20;1732032;80;21585;-47
2022/10/11 10:26:21;;;;;;;0.60;0.40;;;;;;;12.74;100.00;100412.42;1735666;80;22048;-50
2022/10/11 10:29:14;;;;;;;0.60;0.40;;;;;;;12.84;100.00;100408.81;1738007;80;21151;-50
2022/10/11 10:31:53;;;;;;;0.68;0.25;;;;;;;12.84;100.00;100408.81;1733241;80;21111;-50
2022/10/11 10:34:33;;;;;;;0.40;0.23;;;;;;;12.87;100.00;100405.48;1734960;80;21577;-50
2022/10/11 10:37:21;;;;;;;0.30;0.20;;;;;;;12.89;100.00;100403.59;1745518;80;21061;-48
2022/10/11 10:39:52;;;;;;;0.37;0.25;;;;;;;12.95;100.00;100400.18;1751458;79;21838;-49
2022/10/11 10:42:19;;;;;;;2.40;0.20;;;;;;;12.95;100.00;100400.18;1735650;80;21108;-49
2022/10/11 10:44:52;;;;;;;0.25;0.20;;;;;;;13.00;100.00;100395.45;1730764;80;21089;-49
2022/10/11 10:47:44;;;;;;;0.62;0.20;;;;;;;13.01;100.00;100398.09;1740095;79;21072;-49
2022/10/11 10:50:26;;;;;;;0.33;0.20;;;;;;;13.06;100.00;100387.04;1734553;80;21082;-49
2022/10/11 10:53:04;;;;;;;0.70;0.20;;;;;;;13.08;100.00;100380.62;1745290;79;21805;-49
2022/10/11 10:55:41;;;;;;;0.20;0.15;;;;;;;13.08;100.00;100380.62;1725784;80;21163;-49
2022/10/11 10:58:29;;;;;;;0.10;0.10;;;;;;;13.13;100.00;100379.03;1760873;79;21494;-49
2022/10/11 11:01:01;;;;;;;0.80;0.10;;;;;;;13.16;100.00;100380.27;1736893;79;21770;-49
2022/10/11 11:04:00;;;;;;;0.40;0.20;;;;;;;13.18;100.00;100375.17;1763582;79;21060;-49
2022/10/11 11:06:32;;;;;;;0.30;0.20;;;;;;;13.26;100.00;100369.42;1741259;79;22611;-49
2022/10/11 11:09:37;;;;;;;0.40;0.30;;;;;;;13.26;100.00;100359.95;1758531;79;21014;-49
2022/10/11 11:12:33;;;;;;;2.20;0.23;;;;;;;13.29;100.00;100364.31;1753876;79;21438;-49
2022/10/11 11:15:21;;;;;;;0.50;0.30;;;;;;;13.33;100.00;100364.10;1738664;79;21495;-49
2022/10/11 11:17:59;;;;;;;0.45;0.30;;;;;;;13.34;100.00;100363.16;1726560;80;21504;-49
2022/10/11 11:20:43;;;;;;;0.53;0.30;;;;;;;13.35;100.00;100352.73;1755166;79;21736;-49
2022/10/11 11:23:43;;;;;;;0.30;0.20;;;;;;;13.40;100.00;100352.49;1725808;80;20997;-49
2022/10/11 11:26:20;;;;;;;0.40;0.20;;;;;;;13.42;100.00;100347.89;1745999;79;20985;-49
2022/10/11 11:29:15;;;;;;;0.30;0.20;;;;;;;13.41;100.00;100348.36;1732027;80;21010;-49
2022/10/11 11:32:16;;;;;;;0.40;0.20;;;;;;;13.41;100.00;100348.84;1729765;80;21005;-49
2022/10/11 11:34:57;;;;;;;0.57;0.20;;;;;;;13.44;100.00;100354.95;1756989;79;21877;-49
2022/10/11 11:37:34;;;;;;;0.20;0.10;;;;;;;13.47;100.00;100349.88;1741898;79;21020;-49
2022/10/11 11:40:15;;;;;;;0.42;0.20;;;;;;;13.51;100.00;100351.48;1735504;80;21437;-49
2022/10/11 11:42:46;;;;;;;1.53;0.20;;;;;;;13.50;100.00;100342.50;1708928;80;20981;-49
2022/10/11 11:45:25;;;;;;;0.40;0.20;;;;;;;13.53;100.00;100338.73;1744376;79;20981;-48
2022/10/11 11:48:08;;;;;;;0.60;0.20;;;;;;;13.55;100.00;100335.01;1722665;80;22488;-49
2022/10/11 11:50:38;;;;;;;0.25;0.20;;;;;;;13.60;100.00;100329.38;1730754;80;21008;-48
2022/10/11 11:53:10;;;;;;;1.45;0.20;;;;;;;13.66;100.00;100331.76;1731903;80;21061;-49
2022/10/11 11:55:50;;;;;;;0.30;0.20;;;;;;;13.70;100.00;100333.33;1733616;80;22276;-49
2022/10/11 11:58:43;;;;;;;0.55;0.37;;;;;;;13.75;100.00;100333.11;1737059;80;21080;-49
2022/10/11 12:01:50;;;;;;;1.47;0.30;;;;;;;13.80;100.00;100339.14;1731713;80;21744;-49
2022/10/11 12:04:31;;;;;;;0.60;0.30;;;;;;;13.82;100.00;100328.66;1733651;80;21091;-49
2022/10/11 12:07:05;;;;;;;0.40;0.30;;;;;;;13.86;100.00;100328.03;1730931;80;21135;-49
2022/10/11 12:09:32;;;;;;;1.25;0.30;;;;;;;13.86;100.00;100320.78;1732574;80;21080;-49
2022/10/11 12:12:24;;;;;;;0.28;0.28;;;;;;;13.90;100.00;100321.48;1731234;80;21389;-49
2022/10/11 12:14:51;;;;;;;1.87;0.40;;;;;;;13.92;100.00;100319.58;1699059;80;21777;-49
2022/10/11 12:17:22;;;;;;;0.30;0.30;;;;;;;13.93;100.00;100321.33;1734030;80;21072;-49
2022/10/11 12:20:30;;;;;;;2.50;0.30;;;;;;;13.93;100.00;100317.27;1731399;80;21550;-49
2022/10/11 12:23:01;;;;;;;0.75;0.20;;;;;;;13.93;100.00;100319.98;1732280;80;21065;-49
2022/10/11 12:25:34;;;;;;;0.40;0.20;;;;;;;13.93;100.00;100314.09;1743884;80;21565;-49
2022/10/11 12:28:04;;;;;;;0.30;0.20;;;;;;;13.95;100.00;100318.07;1735181;80;22506;-50
2022/10/11 12:30:51;;;;;;;0.30;0.20;;;;;;;13.96;100.00;100320.67;1696026;80;21375;-49
2022/10/11 12:33:24;;;;;;;0.30;0.20;;;;;;;13.97;100.00;100318.36;1742994;80;21518;-49
2022/10/11 12:35:56;;;;;;;1.85;0.20;;;;;;;13.99;100.00;100320.52;1732832;80;21053;-49
2022/10/11 12:38:34;;;;;;;0.20;0.20;;;;;;;14.01;100.00;100315.03;1735070;80;21128;-49
2022/10/11 12:41:17;;;;;;;0.20;0.20;;;;;;;14.02;100.00;100319.48;1730980;80;21343;-49
2022/10/11 12:43:52;;;;;;;0.55;0.20;;;;;;;14.02;100.00;100315.42;1734422;80;21573;-49
2022/10/11 12:46:32;;;;;;;0.25;0.10;;;;;;;14.01;100.00;100313.20;1730034;80;21043;-49
2022/10/11 12:49:42;;;;;;;0.20;0.10;;;;;;;14.01;100.00;100316.38;1759501;79;21102;-49
2022/10/11 12:52:22;;;;;;;0.20;0.20;;;;;;;13.99;100.00;100314.23;1758825;79;21577;-49
2022/10/11 12:55:29;;;;;;;0.33;0.10;;;;;;;13.99;100.00;100316.45;1764971;80;21826;-49
2022/10/11 12:58:19;;;;;;;0.20;0.10;;;;;;;13.99;100.00;100316.94;1762427;79;21074;-50
2022/10/11 13:00:57;;;;;;;0.60;0.23;;;;;;;13.96;100.00;100311.20;1760399;79;21073;-49
2022/10/11 13:03:48;;;;;;;0.20;0.10;;;;;;;13.96;100.00;100310.32;1759775;79;21031;-49
2022/10/11 13:06:27;;;;;;;0.13;0.10;;;;;;;13.94;100.00;100307.72;1684928;80;22024;-49
2022/10/11 13:09:06;;;;;;;0.30;0.13;;;;;;;13.92;100.00;100309.62;1761666;79;21856;-49
2022/10/11 13:12:01;;;;;;;0.10;0.10;;;;;;;13.91;100.00;100308.34;1768084;79;21005;-49
2022/10/11 13:14:30;;;;;;;0.30;0.20;;;;;;;13.90;100.00;100302.06;1762648;79;21038;-49
2022/10/11 13:17:26;;;;;;;0.33;0.10;;;;;;;13.89;100.00;100304.84;1739874;80;21463;-49
2022/10/11 13:19:59;;;;;;;0.30;0.10;;;;;;;13.89;100.00;100300.78;1704117;81;21074;-49
2022/10/11 13:22:25;;;;;;;0.17;0.10;;;;;;;13.89;100.00;100303.48;1756216;80;21836;-49
2022/10/11 13:24:56;;;;;;;0.20;0.20;;;;;;;13.88;100.00;100305.31;1738532;80;21324;-50
2022/10/11 13:27:25;;;;;;;2.72;0.20;;;;;;;13.88;100.00;100302.61;1740262;80;21041;-49
2022/10/11 13:30:01;;;;;;;0.13;0.10;;;;;;;13.87;100.00;100304.92;1743835;80;21087;-49
2022/10/11 13:32:29;;;;;;;0.40;0.13;;;;;;;13.86;100.00;100300.97;1739295;80;21565;-49
2022/10/11 13:35:00;;;;;;;0.72;0.20;;;;;;;13.85;100.00;100297.86;1765496;79;21821;-49
2022/10/11 13:37:28;;;;;;;0.20;0.13;;;;;;;13.84;100.00;100300.16;1744241;80;21466;-50
2022/10/11 13:39:55;;;;;;;0.25;0.20;;;;;;;13.84;100.00;100302.88;1721064;81;21052;-49
2022/10/11 13:42:28;;;;;;;0.90;0.20;;;;;;;13.82;100.00;100294.83;1708153;80;21132;-49
2022/10/11 13:44:55;;;;;;;0.80;0.20;;;;;;;13.81;100.00;100290.84;1732452;80;21089;-49
2022/10/11 13:47:26;;;;;;;0.47;0.30;;;;;;;13.80;100.00;100295.86;1729178;80;21876;-49
2022/10/11 13:50:10;;;;;;;1.00;0.20;;;;;;;13.78;100.00;100290.52;1709055;82;21187;-49
2022/10/11 13:53:04;;;;;;;0.65;0.30;;;;;;;13.76;100.00;100291.10;1710762;82;21041;-49
2022/10/11 13:55:52;;;;;;;1.27;0.20;;;;;;;13.72;100.00;100285.44;1736334;80;21547;-50
2022/10/11 13:58:35;;;;;;;0.50;0.20;;;;;;;13.69;100.00;100285.63;1737740;80;21298;-49
2022/10/11 14:01:06;;;;;;;0.30;0.30;;;;;;;13.67;100.00;100275.83;1736523;80;21807;-49
2022/10/11 14:03:43;;;;;;;0.30;0.20;;;;;;;13.65;100.00;100279.95;1736160;80;21574;-49
2022/10/11 14:06:10;;;;;;;1.65;0.20;;;;;;;13.60;100.00;100277.98;1731655;80;21136;-49
2022/10/11 14:08:53;;;;;;;0.40;0.20;;;;;;;13.56;100.00;100275.03;1732571;81;22347;-49
2022/10/11 14:11:36;;;;;;;0.40;0.20;;;;;;;13.52;100.00;100272.98;1737007;80;21092;-49
2022/10/11 14:14:30;;;;;;;0.30;0.20;;;;;;;13.49;100.00;100277.66;1735341;80;21762;-49
2022/10/11 14:17:05;;;;;;;0.37;0.20;;;;;;;13.44;100.00;100277.87;1735335;80;21128;-50
2022/10/11 14:19:31;;;;;;;0.40;0.20;;;;;;;13.39;100.00;100267.79;1737729;80;25918;-49
2022/10/11 14:21:57;;;;;;;0.30;0.20;;;;;;;13.36;100.00;100271.99;1731767;80;21017;-49
2022/10/11 14:24:24;;;;;;;0.90;0.30;;;;;;;13.31;100.00;100270.02;1734039;80;21050;-50
2022/10/11 14:26:54;;;;;;;0.82;0.20;;;;;;;13.26;100.00;100270.74;1745488;80;21723;-50
2022/10/11 14:29:28;;;;;;;1.35;0.20;;;;;;;13.22;100.00;100278.59;1737260;80;20997;-49
2022/10/11 14:32:00;;;;;;;0.40;0.30;;;;;;;13.17;100.00;100279.31;1733174;80;21325;-49
2022/10/11 14:34:26;;;;;;;0.10;0.10;;;;;;;13.11;100.00;100285.84;1735126;80;21476;-50
2022/10/11 14:36:53;;;;;;;1.15;0.10;;;;;;;13.04;100.00;100284.88;1733039;80;21005;-50
2022/10/11 14:39:23;;;;;;;1.17;0.20;;;;;;;12.98;100.00;100285.20;1735211;80;21864;-50
2022/10/11 14:41:50;;;;;;;0.30;0.20;;;;;;;12.92;100.00;100289.09;1732386;80;20997;-50
2022/10/11 14:44:16;;;;;;;0.30;0.20;;;;;;;12.87;100.00;100288.42;1733389;80;21028;-50
2022/10/11 14:46:45;;;;;;;0.62;0.30;;;;;;;12.79;100.00;100289.27;1736642;80;21052;-50
2022/10/11 14:49:19;;;;;;;1.47;0.20;;;;;;;12.61;100.00;100283.41;1766538;79;20970;-49
2022/10/11 14:51:47;;;;;;;1.70;0.20;;;;;;;12.61;100.00;100283.41;1743728;80;22020;-49
2022/10/11 14:54:14;;;;;;;2.75;0.20;;;;;;;12.51;100.00;100289.25;1748829;80;21497;-49
2022/10/11 14:56:40;;;;;;;9.90;0.35;;;;;;;12.39;100.00;100280.87;1743070;80;21040;-50
2022/10/11 14:59:07;;;;;;;9.53;0.40;;;;;;;12.29;100.00;100280.42;1741767;80;21440;-50
2022/10/11 15:01:34;;;;;;;9.65;0.30;;;;;;;12.20;100.00;100279.97;1732343;80;21112;-49
2022/10/11 15:04:01;;;;;;;2.85;0.98;;;;;;;12.08;100.00;100280.93;1762788;79;21830;-49
2022/10/11 15:06:31;;;;;;;10.45;0.78;;;;;;;11.98;100.00;100280.09;1767379;79;21040;-49
2022/10/11 15:08:57;;;;;;;9.43;1.15;;;;;;;11.88;100.00;100285.50;1736967;80;21047;-49
2022/10/11 15:11:24;;;;;;;22.98;1.15;;;;;;;11.76;100.00;100285.56;1765429;79;21042;-49
2022/10/11 15:13:50;;;;;;;3.30;0.60;;;;;;;11.65;100.00;100286.00;1745732;80;21103;-49
2022/10/11 15:16:18;;;;;;;9.90;1.15;;;;;;;11.54;100.00;100283.39;1760276;79;21770;-49
2022/10/11 15:18:49;;;;;;;9.65;0.80;;;;;;;11.41;100.00;100274.95;1744289;80;21477;-49
2022/10/11 15:21:13;;;;;;;14.68;1.00;;;;;;;11.30;100.00;100277.25;1749828;79;21052;-49
2022/10/11 15:23:40;;;;;;;24.15;1.02;;;;;;;11.17;100.00;100282.27;1743778;80;21120;-49
2022/10/11 15:26:12;;;;;;;17.42;1.00;;;;;;;11.04;100.00;100274.31;1748116;79;21141;-49
2022/10/11 15:28:39;;;;;;;12.10;0.65;;;;;;;10.94;100.00;100285.05;1742483;79;21791;-49
2022/10/11 15:31:05;;;;;;;5.22;0.60;;;;;;;10.81;100.00;100281.97;1748276;79;22241;-49
2022/10/11 15:33:32;;;;;;;3.02;0.70;;;;;;;10.70;100.00;100286.06;1723838;81;21522;-48
2022/10/11 15:35:58;;;;;;;17.67;1.02;;;;;;;10.57;100.00;100279.80;1748418;79;21135;-49
2022/10/11 15:38:25;;;;;;;9.68;0.72;;;;;;;10.47;100.00;100280.22;1749412;79;21016;-49
2022/10/11 15:40:52;;;;;;;14.20;1.00;;;;;;;10.35;100.00;100281.59;1747637;79;21944;-49
2022/10/11 15:43:18;;;;;;;6.92;0.70;;;;;;;10.24;100.00;100287.39;1748456;80;21033;-49
2022/10/11 15:45:45;;;;;;;10.75;0.90;;;;;;;10.12;100.00;100278.39;1747548;79;21538;-49
2022/10/11 15:48:15;;;;;;;11.22;0.70;;;;;;;10.01;100.00;100279.75;1742747;79;21530;-49
2022/10/11 15:50:42;;;;;;;4.90;0.80;;;;;;;9.91;100.00;100281.02;1750925;80;21108;-49
2022/10/11 15:53:15;;;;;;;4.40;0.62;;;;;;;9.77;100.00;100278.39;1749184;80;21894;-49
2022/10/11 15:55:44;;;;;;;4.55;0.70;;;;;;;9.66;100.00;100281.92;1749246;79;21581;-49
2022/10/11 15:58:21;;;;;;;4.62;0.53;;;;;;;9.53;100.00;100282.44;1752202;79;21098;-49
2022/10/11 16:00:52;;;;;;;9.25;0.68;;;;;;;9.36;100.00;100282.53;1745868;79;21112;-49
2022/10/11 16:03:19;;;;;;;2.77;0.50;;;;;;;9.24;100.00;100287.47;1745228;79;21156;-49
2022/10/11 16:05:47;;;;;;;0.80;0.40;;;;;;;9.11;100.00;100289.67;1742750;79;21885;-49
2022/10/11 16:08:13;;;;;;;4.78;0.50;;;;;;;9.00;100.00;100295.43;1749001;79;21069;-49
2022/10/11 16:10:41;;;;;;;5.12;0.60;;;;;;;8.86;100.00;100289.61;1746173;79;21641;-49
2022/10/11 16:13:08;;;;;;;2.87;0.40;;;;;;;8.74;100.00;100294.06;1746471;79;21046;-49
2022/10/11 16:15:40;;;;;;;2.05;0.50;;;;;;;8.65;100.00;100299.26;1747032;79;21068;-49
2022/10/11 16:18:05;;;;;;;0.62;0.40;;;;;;;8.56;100.00;100293.30;1746213;79;21848;-49
2022/10/11 16:20:32;;;;;;;0.80;0.50;;;;;;;8.47;100.00;100297.61;1751356;79;21557;-48
2022/10/11 16:22:59;;;;;;;4.70;0.30;;;;;;;8.36;100.00;100299.27;1748744;79;21365;-48
2022/10/11 16:25:26;;;;;;;5.28;0.40;;;;;;;8.29;100.00;100296.33;1745133;80;21119;-48
2022/10/11 16:27:52;;;;;;;0.70;0.40;;;;;;;8.21;100.00;100296.56;1745059;80;21460;-49
2022/10/11 16:30:19;;;;;;;1.20;0.40;;;;;;;8.15;100.00;100296.76;1767813;78;21980;-49
2022/10/11 16:32:46;;;;;;;2.50;0.42;;;;;;;8.10;100.00;100300.02;1769054;78;21016;-49
2022/10/11 16:35:13;;;;;;;7.22;0.50;;;;;;;8.07;100.00;100295.23;1771535;78;21163;-49
2022/10/11 16:37:39;;;;;;;1.07;0.50;;;;;;;7.98;100.00;100294.57;1741682;80;21093;-48
2022/10/11 16:40:07;;;;;;;0.90;0.40;;;;;;;7.91;100.00;100288.94;1767899;78;21699;-48
2022/10/11 16:42:34;;;;;;;4.25;0.60;;;;;;;7.87;100.00;100297.13;1735474;80;21789;-48
2022/10/11 16:45:02;;;;;;;4.58;0.60;;;;;;;7.79;100.00;100296.47;1731922;80;21077;-48
2022/10/11 16:47:29;;;;;;;3.52;0.68;;;;;;;7.71;100.00;100307.87;1737682;80;21052;-48
2022/10/11 16:49:55;;;;;;;2.70;0.75;;;;;;;7.63;100.00;100301.84;1740951;79;21444;-48
2022/10/11 16:52:22;;;;;;;1.50;0.80;;;;;;;7.55;100.00;100299.38;1744482;80;21598;-48
2022/10/11 16:54:48;;;;;;;3.60;1.22;;;;;;;7.48;100.00;100299.13;1736221;80;21834;-48
2022/10/11 16:57:16;;;;;;;4.23;1.00;;;;;;;7.40;100.00;100300.64;1768202;79;21088;-48
2022/10/11 16:59:43;;;;;;;2.10;0.90;;;;;;;7.30;100.00;100305.85;1743323;80;21084;-48
2022/10/11 17:02:17;;;;;;;2.70;0.98;;;;;;;7.20;100.00;100307.88;1742043;80;21117;-49
2022/10/11 17:04:43;;;;;;;2.47;1.30;;;;;;;7.09;100.00;100301.91;1731855;80;22481;-48
2022/10/11 17:07:13;;;;;;;3.17;1.00;;;;;;;7.00;100.00;100307.50;1738462;80;21673;-48
2022/10/11 17:09:43;;;;;;;4.17;1.07;;;;;;;6.94;100.00;100304.09;1767670;80;21070;-48
2022/10/11 17:12:11;;;;;;;5.67;1.60;;;;;;;6.88;100.00;100297.57;1765679;78;21738;-48
2022/10/11 17:14:39;;;;;;;11.37;1.30;;;;;;;6.85;100.00;100299.86;1766636;78;21082;-49